createdAt,value
2022-11-24T00:01:05.623Z,89.67
2022-11-24T00:03:32.305Z,89.45
2022-11-24T00:06:10.770Z,89.27
2022-11-24T00:08:38.248Z,88.87
2022-11-24T00:11:06.401Z,88.86
2022-11-24T00:13:33.691Z,88.60
2022-11-24T00:16:15.483Z,88.50
2022-11-24T00:18:43.348Z,88.50
2022-11-24T00:21:10.045Z,88.54
2022-11-24T00:23:36.895Z,88.43
2022-11-24T00:26:05.706Z,88.58
2022-11-24T00:28:33.627Z,88.35
2022-11-24T00:31:00.600Z,88.49
2022-11-24T00:33:27.191Z,88.58
2022-11-24T00:35:57.730Z,88.59
2022-11-24T00:38:24.577Z,88.77
2022-11-24T00:40:52.078Z,88.75
2022-11-24T00:43:19.094Z,88.78
2022-11-24T00:45:45.555Z,88.49
2022-11-24T00:48:12.155Z,88.49
2022-11-24T00:50:38.743Z,88.42
2022-11-24T00:53:05.239Z,88.28
2022-11-24T00:55:31.715Z,88.17
2022-11-24T00:57:58.219Z,88.33
2022-11-24T01:00:24.750Z,88.12
2022-11-24T01:02:52.428Z,87.97
2022-11-24T01:05:19.191Z,87.74
2022-11-24T01:07:46.859Z,87.48
2022-11-24T01:10:13.362Z,87.64
2022-11-24T01:12:39.815Z,87.59
2022-11-24T01:15:06.691Z,87.37
2022-11-24T01:17:33.165Z,87.15
2022-11-24T01:19:59.623Z,87.18
2022-11-24T01:22:27.337Z,87.02
2022-11-24T01:24:53.799Z,87.06
2022-11-24T01:27:20.254Z,87.29
2022-11-24T01:29:46.731Z,87.29
2022-11-24T01:32:13.199Z,87.56
2022-11-24T01:34:39.682Z,87.52
2022-11-24T01:37:06.354Z,87.60
2022-11-24T01:39:33.047Z,87.49
2022-11-24T01:42:02.665Z,87.64
2022-11-24T01:44:30.602Z,87.42
2022-11-24T01:47:36.369Z,87.10
2022-11-24T01:50:03.733Z,87.13
2022-11-24T01:52:38.317Z,87.05
2022-11-24T01:55:11.260Z,86.79
2022-11-24T01:57:44.100Z,86.58
2022-11-24T02:00:13.106Z,86.41
2022-11-24T02:02:47.413Z,86.48
2022-11-24T02:05:21.759Z,86.29
2022-11-24T02:07:48.648Z,86.27
2022-11-24T02:10:16.938Z,86.66
2022-11-24T02:12:46.492Z,86.44
2022-11-24T02:15:17.170Z,86.51
2022-11-24T02:17:44.078Z,86.52
2022-11-24T02:20:11.706Z,86.63
2022-11-24T02:22:47.396Z,86.68
2022-11-24T02:25:25.567Z,86.50
2022-11-24T02:27:54.181Z,86.30
2022-11-24T02:30:20.887Z,86.57
2022-11-24T02:32:47.400Z,86.45
2022-11-24T02:35:14.362Z,86.48
2022-11-24T02:37:40.864Z,86.60
2022-11-24T02:40:08.133Z,86.40
2022-11-24T02:42:41.790Z,86.31
2022-11-24T02:45:09.334Z,86.33
2022-11-24T02:47:35.783Z,86.37
2022-11-24T02:50:02.286Z,86.32
2022-11-24T02:52:28.726Z,86.22
2022-11-24T02:54:55.198Z,86.34
2022-11-24T02:57:22.620Z,86.49
2022-11-24T02:59:49.100Z,86.39
2022-11-24T03:02:15.590Z,86.73
2022-11-24T03:04:42.095Z,86.40
2022-11-24T03:07:09.621Z,86.41
2022-11-24T03:09:36.152Z,86.23
2022-11-24T03:12:02.640Z,86.19
2022-11-24T03:14:29.083Z,86.15
2022-11-24T03:16:55.551Z,86.04
2022-11-24T03:19:21.999Z,85.87
2022-11-24T03:21:48.522Z,85.84
2022-11-24T03:24:15.015Z,85.89
2022-11-24T03:26:42.027Z,85.74
2022-11-24T03:29:09.010Z,85.80
2022-11-24T03:31:35.606Z,85.48
2022-11-24T03:34:02.200Z,85.33
2022-11-24T03:36:28.653Z,85.69
2022-11-24T03:38:55.091Z,85.40
2022-11-24T03:41:21.702Z,85.57
2022-11-24T03:43:48.162Z,85.39
2022-11-24T03:46:14.712Z,85.24
2022-11-24T03:48:41.473Z,85.13
2022-11-24T03:51:08.150Z,85.25
2022-11-24T03:53:34.744Z,85.41
2022-11-24T03:56:01.936Z,85.63
2022-11-24T03:58:28.911Z,85.68
2022-11-24T04:00:55.999Z,85.98
2022-11-24T04:03:23.204Z,85.65
2022-11-24T04:05:49.848Z,85.69
2022-11-24T04:08:17.011Z,85.35
2022-11-24T04:10:43.659Z,85.41
2022-11-24T04:13:12.891Z,85.46
2022-11-24T04:15:40.794Z,85.29
2022-11-24T04:18:08.139Z,85.44
2022-11-24T04:20:34.751Z,85.21
2022-11-24T04:23:01.504Z,85.32
2022-11-24T04:25:28.340Z,85.14
2022-11-24T04:27:55.510Z,85.00
2022-11-24T04:30:23.878Z,84.82
2022-11-24T04:32:50.651Z,84.87
2022-11-24T04:35:17.135Z,85.00
2022-11-24T04:37:43.574Z,85.05
2022-11-24T04:40:11.010Z,85.00
2022-11-24T04:42:37.487Z,85.07
2022-11-24T04:45:05.732Z,84.99
2022-11-24T04:47:32.154Z,85.18
2022-11-24T04:49:58.644Z,85.05
2022-11-24T04:52:25.473Z,85.14
2022-11-24T04:54:52.167Z,85.09
2022-11-24T04:57:26.115Z,85.24
2022-11-24T04:59:53.224Z,85.40
2022-11-24T05:02:19.843Z,85.25
2022-11-24T05:04:46.827Z,85.33
2022-11-24T05:07:18.396Z,85.53
2022-11-24T05:10:04.602Z,85.48
2022-11-24T05:12:31.347Z,85.41
2022-11-24T05:14:59.174Z,85.45
2022-11-24T05:17:32.141Z,85.39
2022-11-24T05:19:58.915Z,85.20
2022-11-24T05:22:26.002Z,85.34
2022-11-24T05:24:52.551Z,85.13
2022-11-24T05:27:19.062Z,85.00
2022-11-24T05:29:45.597Z,84.88
2022-11-24T05:32:12.073Z,84.91
2022-11-24T05:34:38.642Z,84.83
2022-11-24T05:37:05.094Z,84.76
2022-11-24T05:39:37.884Z,84.80
2022-11-24T05:42:25.730Z,84.98
2022-11-24T05:44:52.641Z,84.81
2022-11-24T05:47:19.143Z,85.02
2022-11-24T05:49:45.566Z,85.04
2022-11-24T05:52:12.215Z,85.00
2022-11-24T05:54:38.652Z,85.01
2022-11-24T05:57:05.084Z,85.09
2022-11-24T05:59:31.596Z,84.85
2022-11-24T06:01:58.094Z,84.64
2022-11-24T06:04:24.582Z,84.66
2022-11-24T06:06:51.005Z,84.44
2022-11-24T06:09:17.515Z,84.54
2022-11-24T06:11:43.996Z,84.55
2022-11-24T06:14:11.475Z,84.60
2022-11-24T06:16:38.629Z,84.57
2022-11-24T06:19:05.248Z,84.74
2022-11-24T06:21:32.137Z,85.30
2022-11-24T06:23:58.755Z,85.91
2022-11-24T06:26:25.189Z,86.53
2022-11-24T06:28:51.636Z,87.08
2022-11-24T06:31:18.589Z,87.32
2022-11-24T06:33:45.237Z,87.29
2022-11-24T06:36:13.431Z,87.88
2022-11-24T06:38:39.891Z,87.98
2022-11-24T06:41:09.455Z,88.11
2022-11-24T06:43:36.032Z,88.66
2022-11-24T06:46:02.691Z,88.53
2022-11-24T06:48:29.378Z,88.63
2022-11-24T06:51:00.318Z,88.50
2022-11-24T06:53:27.055Z,88.50
2022-11-24T06:55:53.596Z,88.31
2022-11-24T06:58:20.032Z,88.41
2022-11-24T07:00:46.510Z,88.43
2022-11-24T07:03:16.033Z,88.56
2022-11-24T07:05:43.826Z,88.57
2022-11-24T07:08:16.180Z,88.76
2022-11-24T07:10:44.162Z,88.83
2022-11-24T07:13:10.699Z,89.23
2022-11-24T07:15:37.132Z,89.27
2022-11-24T07:18:03.666Z,89.59
2022-11-24T07:20:30.139Z,89.53
2022-11-24T07:22:57.380Z,89.81
2022-11-24T07:25:26.915Z,89.55
2022-11-24T07:27:59.943Z,89.49
2022-11-24T07:30:27.251Z,89.46
2022-11-24T07:33:01.079Z,89.49
2022-11-24T07:35:28.143Z,89.45
2022-11-24T07:37:56.290Z,89.35
2022-11-24T07:40:23.316Z,89.42
2022-11-24T07:42:49.848Z,89.16
2022-11-24T07:45:16.374Z,88.96
2022-11-24T07:47:42.827Z,88.87
2022-11-24T07:50:10.275Z,88.78
2022-11-24T07:52:37.400Z,88.85
2022-11-24T07:55:05.038Z,88.72
2022-11-24T07:57:31.445Z,88.78
2022-11-24T07:59:57.968Z,88.62
2022-11-24T08:02:24.480Z,88.62
2022-11-24T08:04:51.276Z,88.47
2022-11-24T08:07:17.712Z,88.56
2022-11-24T08:09:44.158Z,88.13
2022-11-24T08:12:10.600Z,87.86
2022-11-24T08:14:37.243Z,87.90
2022-11-24T08:17:03.848Z,87.89
2022-11-24T08:19:32.130Z,87.77
2022-11-24T08:21:58.519Z,87.83
2022-11-24T08:24:24.932Z,87.76
2022-11-24T08:26:51.322Z,87.88
2022-11-24T08:29:17.791Z,88.01
2022-11-24T08:31:44.302Z,87.85
2022-11-24T08:34:10.800Z,87.68
2022-11-24T08:36:37.231Z,87.49
2022-11-24T08:39:03.646Z,87.24
2022-11-24T08:41:30.615Z,87.28
2022-11-24T08:43:57.323Z,86.99
2022-11-24T08:46:24.142Z,86.63
2022-11-24T08:48:54.070Z,86.71
2022-11-24T08:51:23.600Z,86.58
2022-11-24T08:53:54.726Z,86.45
2022-11-24T08:56:22.312Z,86.42
2022-11-24T08:58:48.851Z,86.13
2022-11-24T09:01:16.662Z,85.62
2022-11-24T09:03:51.275Z,85.50
2022-11-24T09:06:27.132Z,85.13
2022-11-24T09:08:54.207Z,85.06
2022-11-24T09:11:21.382Z,84.96
2022-11-24T09:13:48.232Z,85.28
2022-11-24T09:16:20.862Z,84.89
2022-11-24T09:18:47.782Z,84.71
2022-11-24T09:21:16.426Z,84.24
2022-11-24T09:23:43.187Z,84.01
2022-11-24T09:26:14.731Z,84.05
2022-11-24T09:28:41.579Z,83.78
2022-11-24T09:31:11.186Z,83.52
2022-11-24T09:33:38.836Z,83.36
2022-11-24T09:36:06.034Z,83.35
2022-11-24T09:38:32.992Z,82.46
2022-11-24T09:41:31.748Z,82.64
2022-11-24T09:44:22.489Z,82.66
2022-11-24T09:47:26.659Z,82.60
2022-11-24T09:50:04.331Z,82.78
2022-11-24T09:52:49.029Z,83.14
2022-11-24T09:55:28.817Z,82.95
2022-11-24T09:58:13.606Z,82.93
2022-11-24T10:00:40.410Z,82.93
2022-11-24T10:03:14.892Z,82.91
2022-11-24T10:05:42.056Z,82.83
2022-11-24T10:08:38.321Z,82.77
2022-11-24T10:11:13.869Z,82.88
2022-11-24T10:14:04.820Z,82.89
2022-11-24T10:17:11.131Z,82.79
2022-11-24T10:19:52.352Z,82.58
2022-11-24T10:22:38.379Z,82.50
2022-11-24T10:25:26.559Z,82.34
2022-11-24T10:28:00.091Z,82.37
2022-11-24T10:30:27.033Z,82.12
2022-11-24T10:32:58.042Z,81.90
2022-11-24T10:35:30.790Z,81.55
2022-11-24T10:38:29.594Z,81.35
2022-11-24T10:41:03.330Z,81.02
2022-11-24T10:43:29.797Z,81.06
2022-11-24T10:46:09.351Z,80.98
2022-11-24T10:48:47.009Z,80.75
2022-11-24T10:51:41.464Z,80.67
2022-11-24T10:54:20.173Z,80.52
2022-11-24T10:56:47.989Z,80.28
2022-11-24T10:59:21.388Z,79.83
2022-11-24T11:01:47.925Z,79.76
2022-11-24T11:04:20.454Z,79.57
2022-11-24T11:06:47.034Z,79.70
2022-11-24T11:09:13.395Z,79.77
2022-11-24T11:11:40.004Z,79.28
2022-11-24T11:14:07.868Z,78.96
2022-11-24T11:16:42.526Z,79.00
2022-11-24T11:19:54.266Z,78.99
2022-11-24T11:22:25.041Z,79.28
2022-11-24T11:25:04.106Z,78.80
2022-11-24T11:27:30.522Z,78.97
2022-11-24T11:35:50.347Z,78.63
2022-11-24T11:38:17.067Z,78.51
2022-11-24T11:40:43.821Z,78.36
2022-11-24T11:43:19.157Z,78.52
2022-11-24T11:45:46.248Z,78.36
2022-11-24T11:48:27.582Z,78.45
2022-11-24T11:51:22.253Z,78.53
2022-11-24T11:53:55.228Z,78.42
2022-11-24T11:56:28.466Z,77.82
2022-11-24T11:59:12.715Z,77.47
2022-11-24T12:01:57.394Z,77.27
2022-11-24T12:04:57.996Z,77.09
2022-11-24T12:07:34.660Z,76.72
2022-11-24T12:10:07.232Z,76.66
2022-11-24T12:13:03.576Z,76.88
2022-11-24T12:15:40.984Z,76.76
2022-11-24T12:18:57.642Z,76.65
2022-11-24T12:21:26.861Z,76.53
2022-11-24T12:24:17.945Z,76.74
2022-11-24T12:27:06.149Z,76.52
2022-11-24T12:30:00.370Z,76.02
2022-11-24T12:32:37.220Z,75.58
2022-11-24T12:35:23.888Z,75.08
2022-11-24T12:38:19.462Z,74.75
2022-11-24T12:41:39.936Z,74.02
2022-11-24T12:43:53.452Z,74.02
2022-11-24T12:46:29.186Z,74.21
2022-11-24T12:49:31.627Z,73.71
2022-11-24T12:52:03.604Z,73.56
2022-11-24T12:54:36.945Z,73.38
2022-11-24T12:57:12.273Z,73.20
2022-11-24T12:59:46.179Z,73.27
2022-11-24T13:02:18.549Z,72.48
2022-11-24T13:04:52.469Z,72.18
2022-11-24T13:07:22.601Z,72.44
2022-11-24T13:10:54.950Z,72.42
2022-11-24T13:13:15.429Z,72.39
2022-11-24T13:16:20.559Z,72.34
2022-11-24T13:18:47.317Z,72.32
2022-11-24T13:21:51.553Z,72.22
2022-11-24T13:24:19.139Z,72.45
2022-11-24T13:27:16.775Z,72.28
2022-11-24T13:29:47.936Z,72.41
2022-11-24T13:32:21.004Z,72.96
2022-11-24T13:34:49.616Z,72.45
2022-11-24T13:37:28.730Z,72.69
2022-11-24T13:40:14.179Z,72.52
2022-11-24T13:43:19.207Z,72.89
2022-11-24T13:45:45.608Z,73.48
2022-11-24T13:48:21.989Z,73.19
2022-11-24T13:50:53.166Z,73.08
2022-11-24T13:53:36.325Z,72.93
2022-11-24T13:56:02.697Z,72.79
2022-11-24T13:58:38.837Z,72.74
2022-11-24T14:01:22.151Z,72.42
2022-11-24T14:04:42.931Z,72.14
2022-11-24T14:07:07.925Z,71.69
2022-11-24T14:09:40.720Z,72.20
2022-11-24T14:12:24.169Z,72.20
2022-11-24T14:14:52.314Z,72.20
2022-11-24T14:17:22.562Z,72.40
2022-11-24T14:19:51.479Z,72.49
2022-11-24T14:22:20.735Z,72.55
2022-11-24T14:24:53.238Z,72.51
2022-11-24T14:27:26.121Z,72.39
2022-11-24T14:29:54.716Z,72.66
2022-11-24T14:32:21.926Z,72.45
2022-11-24T14:34:48.474Z,72.46
2022-11-24T14:37:14.941Z,72.50
2022-11-24T14:39:42.208Z,72.57
2022-11-24T14:42:27.479Z,72.84
2022-11-24T14:45:02.787Z,72.67
2022-11-24T14:47:36.282Z,72.89
2022-11-24T14:50:10.313Z,73.23
2022-11-24T14:52:43.886Z,73.48
2022-11-24T14:55:24.349Z,73.74
2022-11-24T14:57:50.898Z,73.87
2022-11-24T15:00:30.821Z,74.08
2022-11-24T15:03:17.464Z,74.38
2022-11-24T15:05:55.544Z,74.52
2022-11-24T15:08:24.168Z,74.55
2022-11-24T15:11:00.302Z,74.69
2022-11-24T15:13:27.473Z,74.77
2022-11-24T15:16:06.651Z,74.88
2022-11-24T15:18:41.909Z,74.92
2022-11-24T15:21:11.691Z,75.18
2022-11-24T15:23:41.889Z,75.21
2022-11-24T15:26:11.025Z,75.09
2022-11-24T15:28:37.573Z,74.94
2022-11-24T15:31:11.393Z,74.99
2022-11-24T15:33:38.326Z,75.06
2022-11-24T15:36:05.031Z,75.12
2022-11-24T15:38:31.504Z,75.17
2022-11-24T15:40:59.567Z,75.34
2022-11-24T15:43:34.605Z,75.39
2022-11-24T15:46:02.189Z,75.51
2022-11-24T15:48:29.085Z,75.51
2022-11-24T15:50:56.693Z,75.76
2022-11-24T15:53:39.072Z,75.74
2022-11-24T15:56:07.729Z,76.00
2022-11-24T15:58:34.558Z,76.13
2022-11-24T16:01:01.070Z,75.95
2022-11-24T16:06:22.016Z,76.31
2022-11-24T16:08:50.501Z,76.09
2022-11-24T16:11:16.896Z,75.84
2022-11-24T16:13:46.994Z,75.60
2022-11-24T16:16:18.571Z,75.55
2022-11-24T16:18:45.359Z,75.50
2022-11-24T16:21:11.795Z,75.43
2022-11-24T16:23:38.223Z,75.63
2022-11-24T16:26:05.403Z,75.52
2022-11-24T16:28:32.199Z,75.62
2022-11-24T16:30:58.748Z,75.77
2022-11-24T16:33:25.285Z,75.90
2022-11-24T16:35:51.710Z,76.10
2022-11-24T16:38:19.332Z,76.17
2022-11-24T16:40:54.239Z,76.32
2022-11-24T16:43:20.755Z,76.56
2022-11-24T16:45:54.276Z,76.49
2022-11-24T16:48:20.761Z,76.69
2022-11-24T16:50:47.256Z,76.83
2022-11-24T16:53:13.739Z,77.28
2022-11-24T16:55:40.160Z,77.49
2022-11-24T16:58:06.603Z,77.60
2022-11-24T17:00:33.000Z,77.80
2022-11-24T17:02:59.404Z,77.88
2022-11-24T17:05:25.820Z,77.85
2022-11-24T17:07:52.541Z,78.02
2022-11-24T17:10:19.264Z,77.90
2022-11-24T17:12:45.747Z,77.78
2022-11-24T17:18:23.625Z,78.49
2022-11-24T17:20:45.114Z,78.85
2022-11-24T17:23:11.571Z,78.92
2022-11-24T17:25:37.978Z,79.34
2022-11-24T17:28:04.596Z,79.71
2022-11-24T17:30:31.001Z,79.91
2022-11-24T17:32:57.397Z,80.09
2022-11-24T17:35:23.827Z,80.14
2022-11-24T17:37:50.230Z,80.43
2022-11-24T17:40:34.587Z,80.43
2022-11-24T17:43:01.535Z,80.64
2022-11-24T17:45:28.920Z,80.93
2022-11-24T17:47:56.499Z,80.85
2022-11-24T17:50:26.029Z,81.04
2022-11-24T17:52:53.702Z,81.21
2022-11-24T17:55:20.170Z,81.10
2022-11-24T17:57:46.597Z,81.01
2022-11-24T18:00:13.700Z,80.83
2022-11-24T18:02:40.155Z,80.75
2022-11-24T18:05:06.973Z,80.74
2022-11-24T18:07:35.906Z,80.92
2022-11-24T18:10:02.382Z,80.96
2022-11-24T18:12:28.817Z,81.09
2022-11-24T18:14:55.376Z,81.06
2022-11-24T18:17:21.888Z,81.21
2022-11-24T18:19:48.328Z,81.11
2022-11-24T18:22:14.782Z,81.28
2022-11-24T18:24:44.203Z,81.37
2022-11-24T18:27:11.064Z,81.62
2022-11-24T18:29:38.512Z,81.65
2022-11-24T18:32:06.693Z,81.87
2022-11-24T18:34:33.432Z,81.76
2022-11-24T18:37:00.150Z,81.96
2022-11-24T18:39:28.272Z,81.93
2022-11-24T18:41:54.718Z,82.05
2022-11-24T18:44:21.267Z,81.99
2022-11-24T18:46:48.865Z,81.93
2022-11-24T18:49:15.303Z,81.74
2022-11-24T18:51:41.699Z,82.12
2022-11-24T18:54:08.209Z,82.27
2022-11-24T18:56:34.697Z,82.52
2022-11-24T18:59:01.222Z,82.40
2022-11-24T19:01:28.581Z,82.64
2022-11-24T19:03:57.207Z,82.71
2022-11-24T19:06:28.821Z,82.68
2022-11-24T19:08:55.820Z,82.84
2022-11-24T19:11:28.159Z,82.85
2022-11-24T19:13:55.745Z,82.86
2022-11-24T19:16:22.940Z,83.23
2022-11-24T19:18:53.992Z,83.07
2022-11-24T19:21:21.329Z,83.48
2022-11-24T19:23:47.746Z,83.43
2022-11-24T19:26:14.735Z,83.45
2022-11-24T19:28:41.150Z,83.68
2022-11-24T19:31:10.250Z,83.50
2022-11-24T19:33:36.733Z,83.70
2022-11-24T19:36:22.485Z,83.88
2022-11-24T19:38:51.226Z,83.84
2022-11-24T19:41:21.460Z,83.75
2022-11-24T19:43:48.359Z,83.44
2022-11-24T19:46:18.341Z,83.45
2022-11-24T19:48:54.434Z,83.45
2022-11-24T19:51:23.133Z,83.25
2022-11-24T19:53:49.570Z,82.79
2022-11-24T19:56:21.542Z,82.73
2022-11-24T19:58:49.105Z,82.29
2022-11-24T20:01:21.595Z,82.25
2022-11-24T20:03:58.843Z,82.32
2022-11-24T20:06:28.050Z,82.52
2022-11-24T20:08:54.599Z,82.07
2022-11-24T20:11:21.609Z,81.85
2022-11-24T20:13:49.695Z,81.64
2022-11-24T20:16:18.175Z,81.53
2022-11-24T20:18:46.368Z,81.42
2022-11-24T20:21:19.678Z,81.40
2022-11-24T20:23:52.393Z,81.36
2022-11-24T20:26:20.733Z,80.93
2022-11-24T20:28:47.249Z,81.11
2022-11-24T20:31:20.631Z,81.28
2022-11-24T20:33:47.449Z,81.21
2022-11-24T20:36:18.606Z,81.17
2022-11-24T20:38:46.354Z,81.33
2022-11-24T20:41:18.110Z,81.25
2022-11-24T20:43:45.378Z,81.40
2022-11-24T20:46:14.746Z,81.21
2022-11-24T20:48:41.287Z,81.21
2022-11-24T20:51:23.107Z,80.92
2022-11-24T20:53:51.148Z,80.74
2022-11-24T20:56:23.105Z,80.69
2022-11-24T20:58:52.972Z,80.42
2022-11-24T21:01:21.981Z,80.41
2022-11-24T21:03:53.038Z,80.66
2022-11-24T21:06:19.450Z,80.40
2022-11-24T21:08:45.884Z,80.47
2022-11-24T21:11:13.764Z,80.32
2022-11-24T21:13:42.165Z,80.07
2022-11-24T21:16:12.824Z,79.99
2022-11-24T21:18:39.313Z,80.22
2022-11-24T21:21:05.971Z,80.03
2022-11-24T21:23:32.759Z,79.95
2022-11-24T21:26:05.632Z,79.35
2022-11-24T21:28:33.673Z,79.50
2022-11-24T21:31:04.969Z,79.34
2022-11-24T21:33:31.586Z,79.35
2022-11-24T21:36:05.462Z,79.38
2022-11-24T21:38:31.926Z,79.87
2022-11-24T21:41:06.342Z,79.98
2022-11-24T21:43:33.275Z,79.92
2022-11-24T21:46:05.321Z,79.91
2022-11-24T21:48:32.732Z,80.48
2022-11-24T21:51:03.402Z,80.44
2022-11-24T21:53:31.745Z,80.64
2022-11-24T21:56:00.318Z,80.84
2022-11-24T21:58:27.557Z,80.86
2022-11-24T22:00:54.934Z,80.93
2022-11-24T22:03:21.560Z,80.99
2022-11-24T22:05:58.894Z,81.22
2022-11-24T22:08:27.362Z,81.27
2022-11-24T22:10:54.048Z,81.41
2022-11-24T22:13:20.485Z,81.61
2022-11-24T22:15:46.922Z,81.80
2022-11-24T22:18:13.381Z,81.74
2022-11-24T22:20:39.877Z,81.82
2022-11-24T22:23:06.295Z,82.01
2022-11-24T22:25:33.492Z,82.25
2022-11-24T22:27:59.936Z,82.34
2022-11-24T22:30:26.383Z,82.50
2022-11-24T22:32:53.081Z,82.19
2022-11-24T22:35:19.589Z,82.29
2022-11-24T22:37:46.039Z,82.66
2022-11-24T22:40:12.526Z,82.58
2022-11-24T22:42:38.934Z,82.63
2022-11-24T22:45:05.978Z,82.73
2022-11-24T22:47:32.779Z,82.96
2022-11-24T22:49:59.310Z,83.12
2022-11-24T22:52:25.817Z,83.46
2022-11-24T22:54:52.284Z,83.41
2022-11-24T22:57:18.779Z,83.45
2022-11-24T22:59:45.197Z,83.64
2022-11-24T23:02:11.607Z,83.98
2022-11-24T23:04:38.270Z,84.14
2022-11-24T23:07:04.745Z,84.28
2022-11-24T23:09:31.217Z,84.57
2022-11-24T23:11:57.646Z,84.61
2022-11-24T23:14:24.137Z,85.07
2022-11-24T23:16:50.734Z,85.35
2022-11-24T23:19:17.808Z,85.84
2022-11-24T23:21:44.404Z,85.79
2022-11-24T23:24:11.486Z,85.81
2022-11-24T23:26:39.880Z,85.84
2022-11-24T23:29:07.183Z,86.25
2022-11-24T23:31:33.701Z,85.96
2022-11-24T23:34:02.159Z,86.07
2022-11-24T23:36:29.620Z,86.22
2022-11-24T23:38:56.546Z,85.98
2022-11-24T23:41:25.440Z,86.17
2022-11-24T23:43:52.363Z,85.83
2022-11-24T23:46:20.871Z,86.22
2022-11-24T23:48:48.020Z,85.99
2022-11-24T23:51:18.735Z,86.19
2022-11-24T23:53:45.520Z,86.37
2022-11-24T23:56:14.125Z,86.63
2022-11-24T23:58:40.808Z,86.61
